Hlavní strana
METAR-TAF:

METAR-TAF

Letiště :

Svolvær, Norsko

zeměpisná šířka: 68-15N, zeměpisná délka: 014-40E, výška: 0 m

Aktuální stav počasí

Zpráva byla vytvořena před 52 minutami, v 15:50 UTC
Jihozápadní vítr 17 kt s nárazy do 28 kt
Teplota 6°C
Vlhkost vzduchu 93%
Tlak 1008 hPa
Viditelnost 10 km a více
Skoro jasno ve výšce 600 ft
Oblačno až skoro zataženo ve výšce 3800 ft
přeháňky v blízkosti

METAR: ENSH 281550Z 22017G28KT 9999 VCSH FEW006 BKN038 06/05 Q1008 RMK WIND 150FT 19013KT

Čas: 17:42 (16:42 UTC)


TAF: chybějící

Stav a předpovědi počasí z více než 4 000 letišť (zprávy METAR a TAF).

Červené a žluté tečky na mapě představují dostupné meteorologické stanice.

Když kurzor umístíte na tečku, zobrazí se název stanice.

Pak kliknutím zobrazíte stav a předpověď počasí.

Chcete-li změnit mapu, kliknutím na zelené tlačítko se znaménkem +mapu přiblížíte, kliknutím na zelené tlačítko se znaménkem – mapu oddálíte a kliknutím na zelené šipky přejdete na sousední mapy.


METAR-TAF: